sensor_id;sensor_type;location;lat;lon;timestamp;P1;durP1;ratioP1;P2;durP2;ratioP2
25365;SDS011;13315;48.274;-1.900;2022-08-01T12:52:09;113.30;;;37.60;;
25365;SDS011;13315;48.274;-1.900;2022-08-01T15:55:37;78.40;;;18.30;;
25365;SDS011;13315;48.274;-1.900;2022-08-01T15:58:04;775.47;;;696.92;;
25365;SDS011;13315;48.274;-1.900;2022-08-01T16:00:30;1155.32;;;999.90;;
25365;SDS011;13315;48.274;-1.900;2022-08-01T16:02:56;1126.32;;;999.90;;
25365;SDS011;13315;48.274;-1.900;2022-08-01T16:05:22;1137.20;;;999.90;;
25365;SDS011;13315;48.274;-1.900;2022-08-01T16:07:48;1099.63;;;994.00;;
25365;SDS011;13315;48.274;-1.900;2022-08-01T16:10:14;1085.85;;;980.08;;
25365;SDS011;13315;48.274;-1.900;2022-08-01T16:12:40;1099.43;;;992.33;;
25365;SDS011;13315;48.274;-1.900;2022-08-01T16:15:07;1081.22;;;976.92;;
25365;SDS011;13315;48.274;-1.900;2022-08-01T16:17:33;1097.07;;;991.10;;
25365;SDS011;13315;48.274;-1.900;2022-08-01T16:19:59;1088.85;;;986.45;;
25365;SDS011;13315;48.274;-1.900;2022-08-01T16:22:25;1090.28;;;989.30;;
25365;SDS011;13315;48.274;-1.900;2022-08-01T16:24:51;1093.40;;;991.47;;
25365;SDS011;13315;48.274;-1.900;2022-08-01T16:27:18;1074.60;;;975.55;;
25365;SDS011;13315;48.274;-1.900;2022-08-01T16:29:44;1048.53;;;948.70;;
25365;SDS011;13315;48.274;-1.900;2022-08-01T16:32:10;1049.13;;;949.55;;
25365;SDS011;13315;48.274;-1.900;2022-08-01T16:34:37;1045.53;;;944.75;;
25365;SDS011;13315;48.274;-1.900;2022-08-01T16:37:03;1054.40;;;954.38;;
25365;SDS011;13315;48.274;-1.900;2022-08-01T16:39:29;1088.85;;;987.10;;
25365;SDS011;13315;48.274;-1.900;2022-08-01T16:41:56;1078.03;;;979.40;;
25365;SDS011;13315;48.274;-1.900;2022-08-01T16:44:22;1091.45;;;990.80;;
25365;SDS011;13315;48.274;-1.900;2022-08-01T16:46:48;1113.53;;;999.80;;
25365;SDS011;13315;48.274;-1.900;2022-08-01T16:49:14;1150.60;;;999.90;;
25365;SDS011;13315;48.274;-1.900;2022-08-01T16:51:41;1106.55;;;997.13;;
25365;SDS011;13315;48.274;-1.900;2022-08-01T16:54:07;1120.10;;;999.90;;
25365;SDS011;13315;48.274;-1.900;2022-08-01T16:56:33;1114.43;;;999.30;;
25365;SDS011;13315;48.274;-1.900;2022-08-01T16:58:59;1141.70;;;999.90;;
25365;SDS011;13315;48.274;-1.900;2022-08-01T17:01:25;1116.85;;;999.90;;
25365;SDS011;13315;48.274;-1.900;2022-08-01T17:03:52;1102.88;;;996.10;;
25365;SDS011;13315;48.274;-1.900;2022-08-01T17:06:19;642.38;;;582.13;;
25365;SDS011;13315;48.274;-1.900;2022-08-01T17:08:45;1103.70;;;995.55;;
25365;SDS011;13315;48.274;-1.900;2022-08-01T17:11:11;1104.80;;;997.00;;
25365;SDS011;13315;48.274;-1.900;2022-08-01T17:13:37;1086.65;;;985.10;;
25365;SDS011;13315;48.274;-1.900;2022-08-01T17:16:03;1095.47;;;991.78;;
25365;SDS011;13315;48.274;-1.900;2022-08-01T17:18:30;1101.72;;;994.35;;
25365;SDS011;13315;48.274;-1.900;2022-08-01T17:20:56;1091.97;;;992.00;;
25365;SDS011;13315;48.274;-1.900;2022-08-01T17:23:23;1101.75;;;996.55;;
25365;SDS011;13315;48.274;-1.900;2022-08-01T17:25:49;1127.38;;;999.90;;
25365;SDS011;13315;48.274;-1.900;2022-08-01T17:28:15;1142.18;;;999.90;;
25365;SDS011;13315;48.274;-1.900;2022-08-01T17:30:42;1116.28;;;999.90;;
25365;SDS011;13315;48.274;-1.900;2022-08-01T17:33:08;1126.75;;;999.90;;
25365;SDS011;13315;48.274;-1.900;2022-08-01T17:35:34;1111.25;;;999.00;;
25365;SDS011;13315;48.274;-1.900;2022-08-01T17:38:00;1128.18;;;999.90;;
25365;SDS011;13315;48.274;-1.900;2022-08-01T17:40:26;1112.45;;;999.90;;
25365;SDS011;13315;48.274;-1.900;2022-08-01T17:42:52;1107.28;;;998.67;;
25365;SDS011;13315;48.274;-1.900;2022-08-01T17:45:18;1113.10;;;999.90;;
25365;SDS011;13315;48.274;-1.900;2022-08-01T17:47:45;1141.78;;;999.90;;
25365;SDS011;13315;48.274;-1.900;2022-08-01T17:50:11;1141.60;;;999.90;;
25365;SDS011;13315;48.274;-1.900;2022-08-01T17:52:37;1098.82;;;994.15;;
25365;SDS011;13315;48.274;-1.900;2022-08-01T17:55:04;1086.85;;;984.00;;
25365;SDS011;13315;48.274;-1.900;2022-08-01T17:57:30;1089.33;;;986.73;;
25365;SDS011;13315;48.274;-1.900;2022-08-01T17:59:57;1082.65;;;983.42;;
25365;SDS011;13315;48.274;-1.900;2022-08-01T18:02:23;1116.50;;;999.90;;
25365;SDS011;13315;48.274;-1.900;2022-08-01T18:04:50;1130.20;;;999.90;;
25365;SDS011;13315;48.274;-1.900;2022-08-01T18:07:17;1093.37;;;992.27;;
25365;SDS011;13315;48.274;-1.900;2022-08-01T18:09:43;1143.47;;;999.90;;
25365;SDS011;13315;48.274;-1.900;2022-08-01T18:12:10;1109.07;;;998.73;;
25365;SDS011;13315;48.274;-1.900;2022-08-01T18:14:36;1084.03;;;980.65;;
25365;SDS011;13315;48.274;-1.900;2022-08-01T18:17:02;1106.57;;;996.72;;
25365;SDS011;13315;48.274;-1.900;2022-08-01T18:19:28;1090.78;;;986.92;;
25365;SDS011;13315;48.274;-1.900;2022-08-01T18:21:55;1041.82;;;944.33;;
25365;SDS011;13315;48.274;-1.900;2022-08-01T18:24:21;1068.93;;;969.38;;
25365;SDS011;13315;48.274;-1.900;2022-08-01T18:26:48;1049.35;;;950.72;;
25365;SDS011;13315;48.274;-1.900;2022-08-01T18:29:15;1050.70;;;952.58;;
25365;SDS011;13315;48.274;-1.900;2022-08-01T18:31:42;1074.97;;;972.05;;
25365;SDS011;13315;48.274;-1.900;2022-08-01T18:34:08;1125.68;;;999.90;;
25365;SDS011;13315;48.274;-1.900;2022-08-01T18:36:34;1128.05;;;999.90;;
25365;SDS011;13315;48.274;-1.900;2022-08-01T18:39:02;1122.30;;;999.78;;
25365;SDS011;13315;48.274;-1.900;2022-08-01T18:41:29;1072.30;;;970.30;;
25365;SDS011;13315;48.274;-1.900;2022-08-01T18:43:55;1069.88;;;968.53;;
25365;SDS011;13315;48.274;-1.900;2022-08-01T18:46:21;1033.30;;;935.42;;
25365;SDS011;13315;48.274;-1.900;2022-08-01T18:48:47;1033.07;;;934.42;;
25365;SDS011;13315;48.274;-1.900;2022-08-01T18:51:13;1046.43;;;941.75;;
25365;SDS011;13315;48.274;-1.900;2022-08-01T18:53:40;1045.32;;;939.70;;
25365;SDS011;13315;48.274;-1.900;2022-08-01T18:56:06;1037.25;;;932.72;;
25365;SDS011;13315;48.274;-1.900;2022-08-01T18:58:39;1026.13;;;922.40;;
25365;SDS011;13315;48.274;-1.900;2022-08-01T19:01:06;1030.97;;;926.78;;
25365;SDS011;13315;48.274;-1.900;2022-08-01T19:03:32;1013.97;;;910.63;;
25365;SDS011;13315;48.274;-1.900;2022-08-01T19:05:59;975.95;;;877.25;;
25365;SDS011;13315;48.274;-1.900;2022-08-01T19:08:25;1010.70;;;909.78;;
25365;SDS011;13315;48.274;-1.900;2022-08-01T19:10:51;1001.78;;;900.92;;
25365;SDS011;13315;48.274;-1.900;2022-08-01T19:13:17;981.45;;;882.70;;
25365;SDS011;13315;48.274;-1.900;2022-08-01T19:15:44;863.35;;;767.70;;
25365;SDS011;13315;48.274;-1.900;2022-08-01T19:18:10;881.25;;;785.40;;
25365;SDS011;13315;48.274;-1.900;2022-08-01T19:20:37;834.72;;;741.65;;
25365;SDS011;13315;48.274;-1.900;2022-08-01T19:23:06;843.58;;;749.63;;
25365;SDS011;13315;48.274;-1.900;2022-08-01T19:25:54;816.38;;;728.10;;
25365;SDS011;13315;48.274;-1.900;2022-08-01T19:28:21;817.05;;;728.63;;
25365;SDS011;13315;48.274;-1.900;2022-08-01T19:30:49;859.35;;;767.78;;
25365;SDS011;13315;48.274;-1.900;2022-08-01T19:33:16;885.72;;;760.17;;
25365;SDS011;13315;48.274;-1.900;2022-08-01T19:35:43;864.47;;;736.87;;
25365;SDS011;13315;48.274;-1.900;2022-08-01T19:38:09;860.65;;;748.78;;
25365;SDS011;13315;48.274;-1.900;2022-08-01T19:40:36;851.67;;;755.00;;
25365;SDS011;13315;48.274;-1.900;2022-08-01T19:43:02;925.88;;;825.38;;
25365;SDS011;13315;48.274;-1.900;2022-08-01T19:47:57;799.80;;;680.72;;
25365;SDS011;13315;48.274;-1.900;2022-08-01T19:50:27;840.88;;;748.80;;
25365;SDS011;13315;48.274;-1.900;2022-08-01T19:52:54;826.65;;;736.15;;
25365;SDS011;13315;48.274;-1.900;2022-08-01T19:55:20;796.40;;;609.80;;
25365;SDS011;13315;48.274;-1.900;2022-08-01T19:57:48;664.47;;;381.30;;
25365;SDS011;13315;48.274;-1.900;2022-08-01T20:00:16;757.40;;;537.25;;
25365;SDS011;13315;48.274;-1.900;2022-08-01T20:02:42;663.58;;;302.70;;
25365;SDS011;13315;48.274;-1.900;2022-08-01T20:05:10;656.25;;;282.45;;
25365;SDS011;13315;48.274;-1.900;2022-08-01T20:07:36;645.97;;;254.32;;
25365;SDS011;13315;48.274;-1.900;2022-08-01T20:10:03;632.13;;;200.02;;
25365;SDS011;13315;48.274;-1.900;2022-08-01T20:12:29;580.22;;;169.88;;
25365;SDS011;13315;48.274;-1.900;2022-08-01T20:14:55;822.05;;;723.42;;
25365;SDS011;13315;48.274;-1.900;2022-08-01T20:17:22;853.92;;;734.03;;
25365;SDS011;13315;48.274;-1.900;2022-08-01T20:19:49;801.97;;;590.80;;
25365;SDS011;13315;48.274;-1.900;2022-08-01T20:22:17;868.58;;;613.22;;
25365;SDS011;13315;48.274;-1.900;2022-08-01T20:24:43;851.50;;;707.22;;
25365;SDS011;13315;48.274;-1.900;2022-08-01T20:27:12;910.70;;;800.17;;
25365;SDS011;13315;48.274;-1.900;2022-08-01T20:29:39;925.15;;;765.05;;
25365;SDS011;13315;48.274;-1.900;2022-08-01T20:32:06;700.53;;;322.15;;
25365;SDS011;13315;48.274;-1.900;2022-08-01T20:34:34;641.33;;;246.90;;
25365;SDS011;13315;48.274;-1.900;2022-08-01T20:37:06;623.33;;;212.80;;
25365;SDS011;13315;48.274;-1.900;2022-08-01T20:39:33;627.60;;;181.13;;
25365;SDS011;13315;48.274;-1.900;2022-08-01T20:42:00;584.53;;;158.75;;
25365;SDS011;13315;48.274;-1.900;2022-08-01T20:44:28;582.20;;;148.48;;
25365;SDS011;13315;48.274;-1.900;2022-08-01T20:46:55;585.90;;;146.25;;
25365;SDS011;13315;48.274;-1.900;2022-08-01T20:49:21;395.52;;;103.40;;
25365;SDS011;13315;48.274;-1.900;2022-08-01T20:51:49;375.33;;;97.37;;
25365;SDS011;13315;48.274;-1.900;2022-08-01T20:54:16;618.35;;;160.38;;
25365;SDS011;13315;48.274;-1.900;2022-08-01T20:59:28;8.23;;;3.60;;
25365;SDS011;13315;48.274;-1.900;2022-08-01T21:09:37;139.63;;;128.45;;
25365;SDS011;13315;48.274;-1.900;2022-08-01T21:12:04;42.05;;;22.00;;
25365;SDS011;13315;48.274;-1.900;2022-08-01T21:17:08;42.15;;;24.25;;
25365;SDS011;13315;48.274;-1.900;2022-08-01T21:19:36;41.47;;;20.58;;
25365;SDS011;13315;48.274;-1.900;2022-08-01T21:22:10;45.72;;;27.33;;
25365;SDS011;13315;48.274;-1.900;2022-08-01T21:24:47;44.05;;;22.63;;
25365;SDS011;13315;48.274;-1.900;2022-08-01T21:27:16;51.88;;;20.05;;
25365;SDS011;13315;48.274;-1.900;2022-08-01T21:29:43;48.55;;;21.15;;
25365;SDS011;13315;48.274;-1.900;2022-08-01T21:32:10;52.88;;;27.40;;
25365;SDS011;13315;48.274;-1.900;2022-08-01T21:34:39;48.47;;;24.30;;
25365;SDS011;13315;48.274;-1.900;2022-08-01T21:37:07;47.38;;;22.75;;
25365;SDS011;13315;48.274;-1.900;2022-08-01T21:39:34;41.15;;;24.23;;
25365;SDS011;13315;48.274;-1.900;2022-08-01T21:42:02;26.80;;;14.63;;
25365;SDS011;13315;48.274;-1.900;2022-08-01T21:44:28;7.65;;;3.90;;
25365;SDS011;13315;48.274;-1.900;2022-08-01T21:46:58;6.65;;;3.65;;
25365;SDS011;13315;48.274;-1.900;2022-08-01T21:49:24;6.70;;;3.55;;
25365;SDS011;13315;48.274;-1.900;2022-08-01T21:51:59;6.88;;;3.53;;
25365;SDS011;13315;48.274;-1.900;2022-08-01T21:54:30;9.75;;;4.50;;
25365;SDS011;13315;48.274;-1.900;2022-08-01T21:57:06;7.30;;;3.50;;
25365;SDS011;13315;48.274;-1.900;2022-08-01T22:02:12;25.17;;;12.40;;
25365;SDS011;13315;48.274;-1.900;2022-08-01T22:05:02;40.10;;;15.77;;
25365;SDS011;13315;48.274;-1.900;2022-08-01T22:07:31;9.73;;;5.03;;
25365;SDS011;13315;48.274;-1.900;2022-08-01T22:09:59;13.68;;;5.93;;
25365;SDS011;13315;48.274;-1.900;2022-08-01T22:12:27;10.55;;;5.13;;
25365;SDS011;13315;48.274;-1.900;2022-08-01T22:14:54;7.85;;;6.03;;
25365;SDS011;13315;48.274;-1.900;2022-08-01T22:17:21;8.50;;;4.43;;
25365;SDS011;13315;48.274;-1.900;2022-08-01T22:19:48;8.73;;;3.72;;
25365;SDS011;13315;48.274;-1.900;2022-08-01T22:22:15;28.98;;;10.23;;
25365;SDS011;13315;48.274;-1.900;2022-08-01T22:24:42;44.75;;;19.45;;
25365;SDS011;13315;48.274;-1.900;2022-08-01T22:27:10;45.53;;;15.48;;
25365;SDS011;13315;48.274;-1.900;2022-08-01T22:29:57;9.67;;;4.07;;
25365;SDS011;13315;48.274;-1.900;2022-08-01T22:32:25;6.45;;;3.20;;
25365;SDS011;13315;48.274;-1.900;2022-08-01T22:34:53;8.82;;;3.80;;
25365;SDS011;13315;48.274;-1.900;2022-08-01T22:37:19;6.65;;;3.42;;
25365;SDS011;13315;48.274;-1.900;2022-08-01T22:39:45;42.88;;;14.55;;
25365;SDS011;13315;48.274;-1.900;2022-08-01T22:42:11;39.58;;;14.63;;
25365;SDS011;13315;48.274;-1.900;2022-08-01T22:44:42;39.83;;;14.38;;
25365;SDS011;13315;48.274;-1.900;2022-08-01T22:47:15;38.83;;;14.73;;
25365;SDS011;13315;48.274;-1.900;2022-08-01T22:50:04;35.75;;;12.43;;
25365;SDS011;13315;48.274;-1.900;2022-08-01T22:52:31;14.75;;;6.55;;
25365;SDS011;13315;48.274;-1.900;2022-08-01T22:55:08;6.72;;;3.38;;
25365;SDS011;13315;48.274;-1.900;2022-08-01T22:57:36;34.83;;;12.98;;
25365;SDS011;13315;48.274;-1.900;2022-08-01T23:00:06;37.42;;;14.38;;
25365;SDS011;13315;48.274;-1.900;2022-08-01T23:02:35;27.35;;;10.27;;
25365;SDS011;13315;48.274;-1.900;2022-08-01T23:05:04;18.75;;;7.88;;
25365;SDS011;13315;48.274;-1.900;2022-08-01T23:07:31;14.18;;;5.88;;
25365;SDS011;13315;48.274;-1.900;2022-08-01T23:09:58;4.55;;;2.65;;
25365;SDS011;13315;48.274;-1.900;2022-08-01T23:12:25;7.47;;;3.55;;
25365;SDS011;13315;48.274;-1.900;2022-08-01T23:14:52;6.38;;;3.15;;
25365;SDS011;13315;48.274;-1.900;2022-08-01T23:17:18;37.72;;;13.70;;
25365;SDS011;13315;48.274;-1.900;2022-08-01T23:19:45;33.45;;;14.57;;
25365;SDS011;13315;48.274;-1.900;2022-08-01T23:22:11;40.85;;;18.17;;
25365;SDS011;13315;48.274;-1.900;2022-08-01T23:24:37;42.20;;;16.02;;
25365;SDS011;13315;48.274;-1.900;2022-08-01T23:27:04;28.63;;;16.27;;
25365;SDS011;13315;48.274;-1.900;2022-08-01T23:29:49;17.55;;;7.55;;
25365;SDS011;13315;48.274;-1.900;2022-08-01T23:32:16;39.97;;;16.95;;
25365;SDS011;13315;48.274;-1.900;2022-08-01T23:34:43;32.75;;;12.55;;
25365;SDS011;13315;48.274;-1.900;2022-08-01T23:37:09;35.03;;;14.93;;
25365;SDS011;13315;48.274;-1.900;2022-08-01T23:39:35;26.17;;;10.10;;
25365;SDS011;13315;48.274;-1.900;2022-08-01T23:42:02;7.13;;;4.70;;
25365;SDS011;13315;48.274;-1.900;2022-08-01T23:44:28;9.35;;;3.58;;
25365;SDS011;13315;48.274;-1.900;2022-08-01T23:46:54;7.25;;;5.30;;
25365;SDS011;13315;48.274;-1.900;2022-08-01T23:49:20;38.97;;;18.92;;
25365;SDS011;13315;48.274;-1.900;2022-08-01T23:51:46;34.25;;;13.45;;
25365;SDS011;13315;48.274;-1.900;2022-08-01T23:54:12;36.20;;;13.45;;
25365;SDS011;13315;48.274;-1.900;2022-08-01T23:56:38;37.25;;;14.65;;
25365;SDS011;13315;48.274;-1.900;2022-08-01T23:59:04;14.00;;;5.72;;
